Plumas Lake, California
Current Conditions -  °F | °C
As of 5:28 PM on Thursday 27 Nov 2014 (Local Time) from KBAB Reporting Station
Clear Clear  
Wind Chill: 55°   Ceiling: Unl
Heat Index: 55°   Visibility: 10mi
Dew Point: 46°   Wind: 2mph
Humidity: 72%   Direction: 20°NNE
Pressure: 30.06"   Gusts: NA
Location:  39.0904°N, 121.552°W
Report Text: KBAB 280128Z AUTO 02002KT 10SM CLR 13/08 A3006 RMK AO2
Loading
Personal Weather Stations






























Interactive Weather Map New forecast layout! Learn more

10-Day Weather Forecast

Advertisements
Track Severe Weather on mobile